sensor_id;sensor_type;location;lat;lon;timestamp;temperature;humidity
28548;DHT22;68292;49.600;8.746;2023-06-14T00:02:24;24.60;35.20
28548;DHT22;68292;49.600;8.746;2023-06-14T00:04:52;24.60;35.10
28548;DHT22;68292;49.600;8.746;2023-06-14T00:07:33;24.60;35.10
28548;DHT22;68292;49.600;8.746;2023-06-14T00:10:03;24.60;35.40
28548;DHT22;68292;49.600;8.746;2023-06-14T00:12:31;24.60;35.20
28548;DHT22;68292;49.600;8.746;2023-06-14T00:14:59;24.60;35.20
28548;DHT22;68292;49.600;8.746;2023-06-14T00:17:30;24.60;35.10
28548;DHT22;68292;49.600;8.746;2023-06-14T00:19:59;24.60;35.10
28548;DHT22;68292;49.600;8.746;2023-06-14T00:22:27;24.60;35.00
28548;DHT22;68292;49.600;8.746;2023-06-14T00:24:57;24.60;35.20
28548;DHT22;68292;49.600;8.746;2023-06-14T00:27:34;24.60;35.70
28548;DHT22;68292;49.600;8.746;2023-06-14T00:30:02;24.60;34.80
28548;DHT22;68292;49.600;8.746;2023-06-14T00:32:33;24.60;35.10
28548;DHT22;68292;49.600;8.746;2023-06-14T00:35:02;24.60;35.30
28548;DHT22;68292;49.600;8.746;2023-06-14T00:37:30;24.60;35.30
28548;DHT22;68292;49.600;8.746;2023-06-14T00:39:58;24.50;35.00
28548;DHT22;68292;49.600;8.746;2023-06-14T00:42:27;24.50;35.30
28548;DHT22;68292;49.600;8.746;2023-06-14T00:44:57;24.50;35.20
28548;DHT22;68292;49.600;8.746;2023-06-14T00:47:25;24.50;35.20
28548;DHT22;68292;49.600;8.746;2023-06-14T00:49:56;24.50;35.20
28548;DHT22;68292;49.600;8.746;2023-06-14T00:52:24;24.50;35.30
28548;DHT22;68292;49.600;8.746;2023-06-14T00:54:52;24.50;35.40
28548;DHT22;68292;49.600;8.746;2023-06-14T00:57:21;24.50;35.40
28548;DHT22;68292;49.600;8.746;2023-06-14T00:59:50;24.40;35.40
28548;DHT22;68292;49.600;8.746;2023-06-14T01:02:18;24.40;35.40
28548;DHT22;68292;49.600;8.746;2023-06-14T01:04:48;24.40;35.30
28548;DHT22;68292;49.600;8.746;2023-06-14T01:07:25;24.40;35.60
28548;DHT22;68292;49.600;8.746;2023-06-14T01:10:12;24.40;35.70
28548;DHT22;68292;49.600;8.746;2023-06-14T01:12:52;24.40;35.50
28548;DHT22;68292;49.600;8.746;2023-06-14T01:15:25;24.40;35.70
28548;DHT22;68292;49.600;8.746;2023-06-14T01:17:55;24.40;35.50
28548;DHT22;68292;49.600;8.746;2023-06-14T01:20:32;24.40;35.50
28548;DHT22;68292;49.600;8.746;2023-06-14T01:23:05;24.40;35.40
28548;DHT22;68292;49.600;8.746;2023-06-14T01:25:33;24.40;35.50
28548;DHT22;68292;49.600;8.746;2023-06-14T01:28:04;24.40;35.50
28548;DHT22;68292;49.600;8.746;2023-06-14T01:30:38;24.30;35.70
28548;DHT22;68292;49.600;8.746;2023-06-14T01:33:09;24.30;35.70
28548;DHT22;68292;49.600;8.746;2023-06-14T01:35:38;24.30;35.70
28548;DHT22;68292;49.600;8.746;2023-06-14T01:38:08;24.30;35.70
28548;DHT22;68292;49.600;8.746;2023-06-14T01:40:36;24.30;35.70
28548;DHT22;68292;49.600;8.746;2023-06-14T01:43:05;24.30;35.70
28548;DHT22;68292;49.600;8.746;2023-06-14T01:45:36;24.30;35.90
28548;DHT22;68292;49.600;8.746;2023-06-14T01:48:05;24.30;35.80
28548;DHT22;68292;49.600;8.746;2023-06-14T01:50:34;24.30;35.80
28548;DHT22;68292;49.600;8.746;2023-06-14T01:53:05;24.30;36.00
28548;DHT22;68292;49.600;8.746;2023-06-14T01:55:38;24.30;35.80
28548;DHT22;68292;49.600;8.746;2023-06-14T01:58:10;24.30;35.80
28548;DHT22;68292;49.600;8.746;2023-06-14T02:00:38;24.30;35.90
28548;DHT22;68292;49.600;8.746;2023-06-14T02:03:08;24.30;35.90
28548;DHT22;68292;49.600;8.746;2023-06-14T02:05:36;24.20;35.90
28548;DHT22;68292;49.600;8.746;2023-06-14T02:08:06;24.20;35.90
28548;DHT22;68292;49.600;8.746;2023-06-14T02:10:34;24.20;35.90
28548;DHT22;68292;49.600;8.746;2023-06-14T02:13:04;24.20;35.90
28548;DHT22;68292;49.600;8.746;2023-06-14T02:15:32;24.20;35.90
28548;DHT22;68292;49.600;8.746;2023-06-14T02:18:02;24.20;36.00
28548;DHT22;68292;49.600;8.746;2023-06-14T02:20:32;24.20;35.90
28548;DHT22;68292;49.600;8.746;2023-06-14T02:23:01;24.20;36.00
28548;DHT22;68292;49.600;8.746;2023-06-14T02:25:31;24.10;35.90
28548;DHT22;68292;49.600;8.746;2023-06-14T02:27:59;24.10;35.90
28548;DHT22;68292;49.600;8.746;2023-06-14T02:30:28;24.10;36.00
28548;DHT22;68292;49.600;8.746;2023-06-14T02:32:57;24.10;36.20
28548;DHT22;68292;49.600;8.746;2023-06-14T02:35:27;24.10;35.90
28548;DHT22;68292;49.600;8.746;2023-06-14T02:37:55;24.10;36.00
28548;DHT22;68292;49.600;8.746;2023-06-14T02:40:23;24.10;35.80
28548;DHT22;68292;49.600;8.746;2023-06-14T02:42:51;24.10;35.70
28548;DHT22;68292;49.600;8.746;2023-06-14T02:45:19;24.10;35.80
28548;DHT22;68292;49.600;8.746;2023-06-14T02:47:50;24.10;35.80
28548;DHT22;68292;49.600;8.746;2023-06-14T02:50:18;24.10;35.90
28548;DHT22;68292;49.600;8.746;2023-06-14T02:52:48;24.10;35.80
28548;DHT22;68292;49.600;8.746;2023-06-14T02:55:16;24.00;35.60
28548;DHT22;68292;49.600;8.746;2023-06-14T02:57:44;24.10;36.00
28548;DHT22;68292;49.600;8.746;2023-06-14T03:00:15;24.10;35.80
28548;DHT22;68292;49.600;8.746;2023-06-14T03:02:46;24.00;35.80
28548;DHT22;68292;49.600;8.746;2023-06-14T03:05:16;24.10;35.90
28548;DHT22;68292;49.600;8.746;2023-06-14T03:07:48;24.10;36.00
28548;DHT22;68292;49.600;8.746;2023-06-14T03:10:17;24.10;36.10
28548;DHT22;68292;49.600;8.746;2023-06-14T03:12:46;24.10;36.20
28548;DHT22;68292;49.600;8.746;2023-06-14T03:15:15;24.10;36.20
28548;DHT22;68292;49.600;8.746;2023-06-14T03:17:46;24.10;36.20
28548;DHT22;68292;49.600;8.746;2023-06-14T03:20:17;24.10;36.20
28548;DHT22;68292;49.600;8.746;2023-06-14T03:22:47;24.10;36.20
28548;DHT22;68292;49.600;8.746;2023-06-14T03:25:16;24.10;36.10
28548;DHT22;68292;49.600;8.746;2023-06-14T03:27:47;24.10;36.00
28548;DHT22;68292;49.600;8.746;2023-06-14T03:30:15;24.10;36.00
28548;DHT22;68292;49.600;8.746;2023-06-14T03:32:47;24.10;36.00
28548;DHT22;68292;49.600;8.746;2023-06-14T03:35:17;24.20;36.10
28548;DHT22;68292;49.600;8.746;2023-06-14T03:37:48;24.10;36.00
28548;DHT22;68292;49.600;8.746;2023-06-14T03:40:18;24.20;36.00
28548;DHT22;68292;49.600;8.746;2023-06-14T03:42:49;24.20;36.00
28548;DHT22;68292;49.600;8.746;2023-06-14T03:45:18;24.20;36.10
28548;DHT22;68292;49.600;8.746;2023-06-14T03:47:47;24.20;36.10
28548;DHT22;68292;49.600;8.746;2023-06-14T03:50:16;24.20;36.30
28548;DHT22;68292;49.600;8.746;2023-06-14T03:52:48;24.20;36.60
28548;DHT22;68292;49.600;8.746;2023-06-14T03:55:18;24.20;36.90
28548;DHT22;68292;49.600;8.746;2023-06-14T03:57:49;24.20;37.00
28548;DHT22;68292;49.600;8.746;2023-06-14T04:00:17;24.20;36.80
28548;DHT22;68292;49.600;8.746;2023-06-14T04:02:46;24.20;36.80
28548;DHT22;68292;49.600;8.746;2023-06-14T04:05:15;24.20;36.80
28548;DHT22;68292;49.600;8.746;2023-06-14T04:07:49;24.20;36.80
28548;DHT22;68292;49.600;8.746;2023-06-14T04:10:18;24.20;36.60
28548;DHT22;68292;49.600;8.746;2023-06-14T04:12:47;24.20;36.50
28548;DHT22;68292;49.600;8.746;2023-06-14T04:15:17;24.20;36.60
28548;DHT22;68292;49.600;8.746;2023-06-14T04:17:51;24.20;36.50
28548;DHT22;68292;49.600;8.746;2023-06-14T04:20:22;24.20;36.50
28548;DHT22;68292;49.600;8.746;2023-06-14T04:22:52;24.20;36.60
28548;DHT22;68292;49.600;8.746;2023-06-14T04:25:20;24.20;36.60
28548;DHT22;68292;49.600;8.746;2023-06-14T04:27:51;24.20;36.60
28548;DHT22;68292;49.600;8.746;2023-06-14T04:30:21;24.20;36.70
28548;DHT22;68292;49.600;8.746;2023-06-14T04:32:54;24.20;36.70
28548;DHT22;68292;49.600;8.746;2023-06-14T04:35:23;24.20;36.80
28548;DHT22;68292;49.600;8.746;2023-06-14T04:37:53;24.20;36.80
28548;DHT22;68292;49.600;8.746;2023-06-14T04:40:22;24.20;36.80
28548;DHT22;68292;49.600;8.746;2023-06-14T04:42:50;24.20;36.80
28548;DHT22;68292;49.600;8.746;2023-06-14T04:45:19;24.20;36.90
28548;DHT22;68292;49.600;8.746;2023-06-14T04:47:49;24.20;37.00
28548;DHT22;68292;49.600;8.746;2023-06-14T04:50:26;24.20;37.10
28548;DHT22;68292;49.600;8.746;2023-06-14T04:52:57;24.20;37.10
28548;DHT22;68292;49.600;8.746;2023-06-14T04:55:26;24.30;37.30
28548;DHT22;68292;49.600;8.746;2023-06-14T04:57:55;24.30;37.30
28548;DHT22;68292;49.600;8.746;2023-06-14T05:00:23;24.30;37.40
28548;DHT22;68292;49.600;8.746;2023-06-14T05:02:51;24.30;37.30
28548;DHT22;68292;49.600;8.746;2023-06-14T05:05:20;24.30;37.30
28548;DHT22;68292;49.600;8.746;2023-06-14T05:07:49;24.30;37.30
28548;DHT22;68292;49.600;8.746;2023-06-14T05:10:18;24.30;37.40
28548;DHT22;68292;49.600;8.746;2023-06-14T05:12:47;24.30;37.30
28548;DHT22;68292;49.600;8.746;2023-06-14T05:15:17;24.30;37.30
28548;DHT22;68292;49.600;8.746;2023-06-14T05:17:46;24.30;38.00
28548;DHT22;68292;49.600;8.746;2023-06-14T05:20:20;24.30;37.30
28548;DHT22;68292;49.600;8.746;2023-06-14T05:22:49;24.30;37.50
28548;DHT22;68292;49.600;8.746;2023-06-14T05:25:20;24.40;37.50
28548;DHT22;68292;49.600;8.746;2023-06-14T05:27:49;24.40;37.40
28548;DHT22;68292;49.600;8.746;2023-06-14T05:30:17;24.40;37.60
28548;DHT22;68292;49.600;8.746;2023-06-14T05:32:45;24.40;37.70
28548;DHT22;68292;49.600;8.746;2023-06-14T05:35:14;24.40;37.70
28548;DHT22;68292;49.600;8.746;2023-06-14T05:37:42;24.40;37.70
28548;DHT22;68292;49.600;8.746;2023-06-14T05:40:11;24.40;37.70
28548;DHT22;68292;49.600;8.746;2023-06-14T05:42:41;24.40;37.70
28548;DHT22;68292;49.600;8.746;2023-06-14T05:45:09;24.40;37.80
28548;DHT22;68292;49.600;8.746;2023-06-14T05:47:37;24.40;37.80
28548;DHT22;68292;49.600;8.746;2023-06-14T05:50:06;24.40;37.80
28548;DHT22;68292;49.600;8.746;2023-06-14T05:52:34;24.40;38.10
28548;DHT22;68292;49.600;8.746;2023-06-14T05:55:04;24.40;38.10
28548;DHT22;68292;49.600;8.746;2023-06-14T05:57:32;24.50;38.10
28548;DHT22;68292;49.600;8.746;2023-06-14T06:00:03;24.50;38.20
28548;DHT22;68292;49.600;8.746;2023-06-14T06:02:38;24.50;38.30
28548;DHT22;68292;49.600;8.746;2023-06-14T06:05:06;24.50;38.20
28548;DHT22;68292;49.600;8.746;2023-06-14T06:07:35;24.50;38.30
28548;DHT22;68292;49.600;8.746;2023-06-14T06:10:05;24.60;38.20
28548;DHT22;68292;49.600;8.746;2023-06-14T06:12:33;24.60;38.30
28548;DHT22;68292;49.600;8.746;2023-06-14T06:15:04;24.50;38.20
28548;DHT22;68292;49.600;8.746;2023-06-14T06:17:33;24.60;38.30
28548;DHT22;68292;49.600;8.746;2023-06-14T06:20:20;24.60;38.20
28548;DHT22;68292;49.600;8.746;2023-06-14T06:22:54;24.60;38.30
28548;DHT22;68292;49.600;8.746;2023-06-14T06:25:23;24.60;38.40
28548;DHT22;68292;49.600;8.746;2023-06-14T06:27:53;24.60;38.40
28548;DHT22;68292;49.600;8.746;2023-06-14T06:30:22;24.70;38.60
28548;DHT22;68292;49.600;8.746;2023-06-14T06:32:51;24.70;38.50
28548;DHT22;68292;49.600;8.746;2023-06-14T06:35:19;24.70;38.50
28548;DHT22;68292;49.600;8.746;2023-06-14T06:37:47;24.70;38.20
28548;DHT22;68292;49.600;8.746;2023-06-14T06:40:16;24.70;38.10
28548;DHT22;68292;49.600;8.746;2023-06-14T06:42:44;24.70;38.10
28548;DHT22;68292;49.600;8.746;2023-06-14T06:45:14;24.70;38.10
28548;DHT22;68292;49.600;8.746;2023-06-14T06:47:44;24.80;38.10
28548;DHT22;68292;49.600;8.746;2023-06-14T06:50:12;24.80;38.10
28548;DHT22;68292;49.600;8.746;2023-06-14T06:52:41;24.80;38.20
28548;DHT22;68292;49.600;8.746;2023-06-14T06:55:09;24.80;38.10
28548;DHT22;68292;49.600;8.746;2023-06-14T06:57:40;24.90;38.10
28548;DHT22;68292;49.600;8.746;2023-06-14T07:00:09;24.90;38.00
28548;DHT22;68292;49.600;8.746;2023-06-14T07:02:40;24.90;38.10
28548;DHT22;68292;49.600;8.746;2023-06-14T07:05:10;24.90;37.90
28548;DHT22;68292;49.600;8.746;2023-06-14T07:07:38;24.90;37.80
28548;DHT22;68292;49.600;8.746;2023-06-14T07:10:07;24.90;37.70
28548;DHT22;68292;49.600;8.746;2023-06-14T07:12:35;24.90;37.50
28548;DHT22;68292;49.600;8.746;2023-06-14T07:15:07;24.90;38.50
28548;DHT22;68292;49.600;8.746;2023-06-14T07:17:36;25.00;37.60
28548;DHT22;68292;49.600;8.746;2023-06-14T07:20:05;25.00;37.60
28548;DHT22;68292;49.600;8.746;2023-06-14T07:22:41;25.00;37.50
28548;DHT22;68292;49.600;8.746;2023-06-14T07:25:11;25.00;37.50
28548;DHT22;68292;49.600;8.746;2023-06-14T07:27:41;25.00;37.60
28548;DHT22;68292;49.600;8.746;2023-06-14T07:30:10;25.00;37.60
28548;DHT22;68292;49.600;8.746;2023-06-14T07:32:39;25.00;37.60
28548;DHT22;68292;49.600;8.746;2023-06-14T07:35:08;25.00;37.60
28548;DHT22;68292;49.600;8.746;2023-06-14T07:37:36;25.00;37.60
28548;DHT22;68292;49.600;8.746;2023-06-14T07:40:07;25.00;37.60
28548;DHT22;68292;49.600;8.746;2023-06-14T07:42:37;25.10;37.70
28548;DHT22;68292;49.600;8.746;2023-06-14T07:45:06;25.10;37.70
28548;DHT22;68292;49.600;8.746;2023-06-14T07:47:35;25.10;37.80
28548;DHT22;68292;49.600;8.746;2023-06-14T07:50:03;25.10;37.70
28548;DHT22;68292;49.600;8.746;2023-06-14T07:52:34;25.10;37.90
28548;DHT22;68292;49.600;8.746;2023-06-14T07:55:03;25.10;37.90
28548;DHT22;68292;49.600;8.746;2023-06-14T07:57:33;25.20;38.00
28548;DHT22;68292;49.600;8.746;2023-06-14T08:00:02;25.20;38.10
28548;DHT22;68292;49.600;8.746;2023-06-14T08:02:37;25.20;38.10
28548;DHT22;68292;49.600;8.746;2023-06-14T08:05:06;25.20;38.00
28548;DHT22;68292;49.600;8.746;2023-06-14T08:07:35;25.30;38.10
28548;DHT22;68292;49.600;8.746;2023-06-14T08:10:04;25.30;37.90
28548;DHT22;68292;49.600;8.746;2023-06-14T08:12:34;25.30;38.00
28548;DHT22;68292;49.600;8.746;2023-06-14T08:15:03;25.40;37.90
28548;DHT22;68292;49.600;8.746;2023-06-14T08:17:34;25.40;37.80
28548;DHT22;68292;49.600;8.746;2023-06-14T08:20:03;25.40;37.90
28548;DHT22;68292;49.600;8.746;2023-06-14T08:22:32;25.40;37.90
28548;DHT22;68292;49.600;8.746;2023-06-14T08:25:03;25.40;37.60
28548;DHT22;68292;49.600;8.746;2023-06-14T08:27:33;25.40;37.60
28548;DHT22;68292;49.600;8.746;2023-06-14T08:30:01;25.40;37.60
28548;DHT22;68292;49.600;8.746;2023-06-14T08:32:30;25.50;37.60
28548;DHT22;68292;49.600;8.746;2023-06-14T08:34:58;25.50;37.70
28548;DHT22;68292;49.600;8.746;2023-06-14T08:37:45;25.50;37.90
28548;DHT22;68292;49.600;8.746;2023-06-14T08:40:20;25.50;37.80
28548;DHT22;68292;49.600;8.746;2023-06-14T08:42:52;25.60;37.70
28548;DHT22;68292;49.600;8.746;2023-06-14T08:45:22;25.60;37.80
28548;DHT22;68292;49.600;8.746;2023-06-14T08:47:54;25.60;37.80
28548;DHT22;68292;49.600;8.746;2023-06-14T08:50:26;25.60;37.70
28548;DHT22;68292;49.600;8.746;2023-06-14T08:52:58;25.60;37.70
28548;DHT22;68292;49.600;8.746;2023-06-14T08:55:29;25.60;37.70
28548;DHT22;68292;49.600;8.746;2023-06-14T08:58:04;25.60;37.60
28548;DHT22;68292;49.600;8.746;2023-06-14T09:00:33;25.70;37.60
28548;DHT22;68292;49.600;8.746;2023-06-14T09:03:01;25.70;37.50
28548;DHT22;68292;49.600;8.746;2023-06-14T09:05:29;25.70;37.30
28548;DHT22;68292;49.600;8.746;2023-06-14T09:07:58;25.70;37.30
28548;DHT22;68292;49.600;8.746;2023-06-14T09:10:31;25.70;37.20
28548;DHT22;68292;49.600;8.746;2023-06-14T09:13:02;25.80;37.40
28548;DHT22;68292;49.600;8.746;2023-06-14T09:15:32;25.80;37.50
28548;DHT22;68292;49.600;8.746;2023-06-14T09:18:01;25.80;37.40
28548;DHT22;68292;49.600;8.746;2023-06-14T09:20:30;25.80;37.00
28548;DHT22;68292;49.600;8.746;2023-06-14T09:22:58;25.80;37.20
28548;DHT22;68292;49.600;8.746;2023-06-14T09:25:27;25.80;37.20
28548;DHT22;68292;49.600;8.746;2023-06-14T09:28:09;25.80;37.30
28548;DHT22;68292;49.600;8.746;2023-06-14T09:30:39;25.90;37.30
28548;DHT22;68292;49.600;8.746;2023-06-14T09:33:07;26.00;37.30
28548;DHT22;68292;49.600;8.746;2023-06-14T09:35:35;26.10;37.10
28548;DHT22;68292;49.600;8.746;2023-06-14T09:38:03;26.10;36.90
28548;DHT22;68292;49.600;8.746;2023-06-14T09:40:34;26.20;36.50
28548;DHT22;68292;49.600;8.746;2023-06-14T09:43:06;26.20;36.50
28548;DHT22;68292;49.600;8.746;2023-06-14T09:45:39;26.30;36.40
28548;DHT22;68292;49.600;8.746;2023-06-14T09:48:07;26.30;36.40
28548;DHT22;68292;49.600;8.746;2023-06-14T09:50:36;26.30;36.30
28548;DHT22;68292;49.600;8.746;2023-06-14T09:53:07;26.30;36.40
28548;DHT22;68292;49.600;8.746;2023-06-14T09:55:36;26.30;36.30
28548;DHT22;68292;49.600;8.746;2023-06-14T09:58:07;26.30;36.40
28548;DHT22;68292;49.600;8.746;2023-06-14T10:00:36;26.30;36.20
28548;DHT22;68292;49.600;8.746;2023-06-14T10:03:12;26.30;36.10
28548;DHT22;68292;49.600;8.746;2023-06-14T10:05:44;26.30;36.10
28548;DHT22;68292;49.600;8.746;2023-06-14T10:08:15;26.30;36.50
28548;DHT22;68292;49.600;8.746;2023-06-14T10:10:45;26.30;36.50
28548;DHT22;68292;49.600;8.746;2023-06-14T10:13:14;26.30;36.30
28548;DHT22;68292;49.600;8.746;2023-06-14T10:15:51;26.30;36.10
28548;DHT22;68292;49.600;8.746;2023-06-14T10:18:31;26.30;35.80
28548;DHT22;68292;49.600;8.746;2023-06-14T10:21:08;26.30;35.60
28548;DHT22;68292;49.600;8.746;2023-06-14T10:23:43;26.30;35.20
28548;DHT22;68292;49.600;8.746;2023-06-14T10:26:19;26.30;35.50
28548;DHT22;68292;49.600;8.746;2023-06-14T10:28:59;26.30;35.60
28548;DHT22;68292;49.600;8.746;2023-06-14T10:31:43;26.30;35.70
28548;DHT22;68292;49.600;8.746;2023-06-14T10:34:14;26.30;35.60
28548;DHT22;68292;49.600;8.746;2023-06-14T10:37:03;26.30;35.80
28548;DHT22;68292;49.600;8.746;2023-06-14T10:39:39;26.40;36.00
28548;DHT22;68292;49.600;8.746;2023-06-14T10:42:08;26.40;35.80
28548;DHT22;68292;49.600;8.746;2023-06-14T10:44:44;26.40;35.70
28548;DHT22;68292;49.600;8.746;2023-06-14T10:47:28;26.40;36.00
28548;DHT22;68292;49.600;8.746;2023-06-14T10:50:04;26.40;36.30
28548;DHT22;68292;49.600;8.746;2023-06-14T10:52:34;26.40;35.70
28548;DHT22;68292;49.600;8.746;2023-06-14T10:55:07;26.40;35.50
28548;DHT22;68292;49.600;8.746;2023-06-14T10:57:43;26.50;35.60
28548;DHT22;68292;49.600;8.746;2023-06-14T11:00:20;26.40;35.40
28548;DHT22;68292;49.600;8.746;2023-06-14T11:03:10;26.40;35.20
28548;DHT22;68292;49.600;8.746;2023-06-14T11:06:00;26.50;35.80
28548;DHT22;68292;49.600;8.746;2023-06-14T11:09:09;26.50;35.50
28548;DHT22;68292;49.600;8.746;2023-06-14T11:11:54;26.50;35.40
28548;DHT22;68292;49.600;8.746;2023-06-14T11:14:24;26.50;35.70
28548;DHT22;68292;49.600;8.746;2023-06-14T11:16:52;26.50;36.00
28548;DHT22;68292;49.600;8.746;2023-06-14T11:19:22;26.50;36.20
28548;DHT22;68292;49.600;8.746;2023-06-14T11:21:50;26.50;36.20
28548;DHT22;68292;49.600;8.746;2023-06-14T11:24:19;26.50;35.90
28548;DHT22;68292;49.600;8.746;2023-06-14T11:26:48;26.50;36.10
28548;DHT22;68292;49.600;8.746;2023-06-14T11:29:16;26.50;36.10
28548;DHT22;68292;49.600;8.746;2023-06-14T11:31:45;26.50;36.10
28548;DHT22;68292;49.600;8.746;2023-06-14T11:34:13;26.50;36.20
28548;DHT22;68292;49.600;8.746;2023-06-14T11:36:45;26.50;36.00
28548;DHT22;68292;49.600;8.746;2023-06-14T11:39:14;26.50;35.90
28548;DHT22;68292;49.600;8.746;2023-06-14T11:41:44;26.50;35.60
28548;DHT22;68292;49.600;8.746;2023-06-14T11:44:13;26.50;35.40
28548;DHT22;68292;49.600;8.746;2023-06-14T11:46:41;26.50;35.20
28548;DHT22;68292;49.600;8.746;2023-06-14T11:49:09;26.50;35.10
28548;DHT22;68292;49.600;8.746;2023-06-14T11:51:37;26.50;35.20
28548;DHT22;68292;49.600;8.746;2023-06-14T11:54:07;26.50;35.10
28548;DHT22;68292;49.600;8.746;2023-06-14T11:56:36;26.50;35.20
28548;DHT22;68292;49.600;8.746;2023-06-14T11:59:05;26.50;35.30
28548;DHT22;68292;49.600;8.746;2023-06-14T12:01:36;26.50;36.00
28548;DHT22;68292;49.600;8.746;2023-06-14T12:04:06;26.50;35.40
28548;DHT22;68292;49.600;8.746;2023-06-14T12:06:35;26.50;35.50
28548;DHT22;68292;49.600;8.746;2023-06-14T12:09:07;26.50;35.10
28548;DHT22;68292;49.600;8.746;2023-06-14T12:11:40;26.40;35.20
28548;DHT22;68292;49.600;8.746;2023-06-14T12:14:08;26.40;35.00
28548;DHT22;68292;49.600;8.746;2023-06-14T12:16:39;26.40;35.10
28548;DHT22;68292;49.600;8.746;2023-06-14T12:19:11;26.40;35.20
28548;DHT22;68292;49.600;8.746;2023-06-14T12:21:40;26.40;35.30
28548;DHT22;68292;49.600;8.746;2023-06-14T12:24:12;26.50;35.60
28548;DHT22;68292;49.600;8.746;2023-06-14T12:26:41;26.40;35.60
28548;DHT22;68292;49.600;8.746;2023-06-14T12:29:09;26.40;35.50
28548;DHT22;68292;49.600;8.746;2023-06-14T12:31:39;26.40;35.50
28548;DHT22;68292;49.600;8.746;2023-06-14T12:34:07;26.50;35.40
28548;DHT22;68292;49.600;8.746;2023-06-14T12:36:35;26.50;35.40
28548;DHT22;68292;49.600;8.746;2023-06-14T12:39:09;26.50;35.40
28548;DHT22;68292;49.600;8.746;2023-06-14T12:41:37;26.50;35.60
28548;DHT22;68292;49.600;8.746;2023-06-14T12:44:08;26.50;35.50
28548;DHT22;68292;49.600;8.746;2023-06-14T12:46:36;26.50;35.50
28548;DHT22;68292;49.600;8.746;2023-06-14T12:49:08;26.50;35.50
28548;DHT22;68292;49.600;8.746;2023-06-14T12:51:36;26.50;35.10
28548;DHT22;68292;49.600;8.746;2023-06-14T12:54:05;26.50;34.90
28548;DHT22;68292;49.600;8.746;2023-06-14T12:56:35;26.50;35.10
28548;DHT22;68292;49.600;8.746;2023-06-14T12:59:03;26.50;35.30
28548;DHT22;68292;49.600;8.746;2023-06-14T13:01:32;26.50;35.40
28548;DHT22;68292;49.600;8.746;2023-06-14T13:04:00;26.50;35.50
28548;DHT22;68292;49.600;8.746;2023-06-14T13:06:29;26.50;35.60
28548;DHT22;68292;49.600;8.746;2023-06-14T13:08:58;26.60;35.60
28548;DHT22;68292;49.600;8.746;2023-06-14T13:11:26;26.60;35.60
28548;DHT22;68292;49.600;8.746;2023-06-14T13:13:56;26.60;35.70
28548;DHT22;68292;49.600;8.746;2023-06-14T13:16:24;26.60;35.70
28548;DHT22;68292;49.600;8.746;2023-06-14T13:18:52;26.60;35.50
28548;DHT22;68292;49.600;8.746;2023-06-14T13:21:20;26.60;35.40
28548;DHT22;68292;49.600;8.746;2023-06-14T13:23:48;26.60;35.50
28548;DHT22;68292;49.600;8.746;2023-06-14T13:26:16;26.60;35.50
28548;DHT22;68292;49.600;8.746;2023-06-14T13:28:45;26.60;35.50
28548;DHT22;68292;49.600;8.746;2023-06-14T13:31:14;26.60;35.30
28548;DHT22;68292;49.600;8.746;2023-06-14T13:33:42;26.60;35.50
28548;DHT22;68292;49.600;8.746;2023-06-14T13:36:10;26.60;35.70
28548;DHT22;68292;49.600;8.746;2023-06-14T13:38:38;26.60;35.60
28548;DHT22;68292;49.600;8.746;2023-06-14T13:41:06;26.60;35.50
28548;DHT22;68292;49.600;8.746;2023-06-14T13:43:34;26.60;35.40
28548;DHT22;68292;49.600;8.746;2023-06-14T13:46:02;26.60;35.40
28548;DHT22;68292;49.600;8.746;2023-06-14T13:48:32;26.60;35.40
28548;DHT22;68292;49.600;8.746;2023-06-14T13:51:00;26.60;35.20
28548;DHT22;68292;49.600;8.746;2023-06-14T13:53:31;26.60;35.00
28548;DHT22;68292;49.600;8.746;2023-06-14T13:55:59;26.60;35.10
28548;DHT22;68292;49.600;8.746;2023-06-14T13:58:27;26.60;35.10
28548;DHT22;68292;49.600;8.746;2023-06-14T14:00:55;26.60;35.00
28548;DHT22;68292;49.600;8.746;2023-06-14T14:03:26;26.50;35.00
28548;DHT22;68292;49.600;8.746;2023-06-14T14:05:56;26.50;35.00
28548;DHT22;68292;49.600;8.746;2023-06-14T14:08:24;26.50;35.00
28548;DHT22;68292;49.600;8.746;2023-06-14T14:10:52;26.50;35.00
28548;DHT22;68292;49.600;8.746;2023-06-14T14:13:21;26.50;35.10
28548;DHT22;68292;49.600;8.746;2023-06-14T14:15:49;26.50;35.20
28548;DHT22;68292;49.600;8.746;2023-06-14T14:18:18;26.50;35.20
28548;DHT22;68292;49.600;8.746;2023-06-14T14:20:48;26.50;35.40
28548;DHT22;68292;49.600;8.746;2023-06-14T14:23:17;26.50;35.30
28548;DHT22;68292;49.600;8.746;2023-06-14T14:25:47;26.50;35.50
28548;DHT22;68292;49.600;8.746;2023-06-14T14:28:15;26.50;35.60
28548;DHT22;68292;49.600;8.746;2023-06-14T14:30:45;26.50;35.50
28548;DHT22;68292;49.600;8.746;2023-06-14T14:33:14;26.50;35.40
28548;DHT22;68292;49.600;8.746;2023-06-14T14:35:43;26.60;35.40
28548;DHT22;68292;49.600;8.746;2023-06-14T14:38:12;26.60;35.20
28548;DHT22;68292;49.600;8.746;2023-06-14T14:40:42;26.60;35.30
28548;DHT22;68292;49.600;8.746;2023-06-14T14:43:10;26.60;35.30
28548;DHT22;68292;49.600;8.746;2023-06-14T14:45:39;26.60;35.20
28548;DHT22;68292;49.600;8.746;2023-06-14T14:48:07;26.60;35.20
28548;DHT22;68292;49.600;8.746;2023-06-14T14:50:35;26.60;35.30
28548;DHT22;68292;49.600;8.746;2023-06-14T14:53:03;26.60;35.20
28548;DHT22;68292;49.600;8.746;2023-06-14T14:55:32;26.60;35.20
28548;DHT22;68292;49.600;8.746;2023-06-14T14:58:04;26.60;35.30
28548;DHT22;68292;49.600;8.746;2023-06-14T15:00:33;26.60;35.30
28548;DHT22;68292;49.600;8.746;2023-06-14T15:03:01;26.60;35.40
28548;DHT22;68292;49.600;8.746;2023-06-14T15:05:30;26.60;35.50
28548;DHT22;68292;49.600;8.746;2023-06-14T15:07:58;26.60;35.50
28548;DHT22;68292;49.600;8.746;2023-06-14T15:10:26;26.60;35.60
28548;DHT22;68292;49.600;8.746;2023-06-14T15:12:54;26.60;35.70
28548;DHT22;68292;49.600;8.746;2023-06-14T15:15:23;26.60;36.10
28548;DHT22;68292;49.600;8.746;2023-06-14T15:17:51;26.60;36.00
28548;DHT22;68292;49.600;8.746;2023-06-14T15:20:20;26.70;36.10
28548;DHT22;68292;49.600;8.746;2023-06-14T15:22:48;26.60;35.90
28548;DHT22;68292;49.600;8.746;2023-06-14T15:25:16;26.60;35.60
28548;DHT22;68292;49.600;8.746;2023-06-14T15:27:45;26.60;35.20
28548;DHT22;68292;49.600;8.746;2023-06-14T15:30:13;26.60;34.90
28548;DHT22;68292;49.600;8.746;2023-06-14T15:32:43;26.60;34.80
28548;DHT22;68292;49.600;8.746;2023-06-14T15:35:11;26.60;34.70
28548;DHT22;68292;49.600;8.746;2023-06-14T15:37:39;26.60;34.60
28548;DHT22;68292;49.600;8.746;2023-06-14T15:40:08;26.60;34.70
28548;DHT22;68292;49.600;8.746;2023-06-14T15:42:37;26.60;34.90
28548;DHT22;68292;49.600;8.746;2023-06-14T15:45:06;26.60;35.10
28548;DHT22;68292;49.600;8.746;2023-06-14T15:47:34;26.60;35.20
28548;DHT22;68292;49.600;8.746;2023-06-14T15:50:05;26.60;35.40